createdAt,value
2018-03-28T00:01:49.678Z,22.20
2018-03-28T00:04:18.322Z,20.00
2018-03-28T00:06:46.963Z,19.80
2018-03-28T00:09:15.660Z,20.00
2018-03-28T00:11:44.298Z,24.07
2018-03-28T00:14:13.669Z,21.27
2018-03-28T00:16:42.370Z,21.50
2018-03-28T00:19:11.014Z,21.70
2018-03-28T00:21:39.661Z,22.03
2018-03-28T00:24:08.295Z,23.10
2018-03-28T00:26:36.888Z,19.67
2018-03-28T00:29:05.523Z,18.40
2018-03-28T00:31:34.119Z,23.33
2018-03-28T00:34:03.519Z,22.63
2018-03-28T00:36:32.195Z,20.73
2018-03-28T00:39:00.794Z,17.07
2018-03-28T00:41:30.188Z,20.53
2018-03-28T00:43:58.777Z,17.47
2018-03-28T00:46:27.425Z,20.60
2018-03-28T00:48:56.008Z,22.50
2018-03-28T00:51:35.717Z,19.47
2018-03-28T00:54:04.466Z,16.70
2018-03-28T00:56:33.085Z,17.50
2018-03-28T00:59:01.677Z,18.67
2018-03-28T01:01:31.086Z,18.10
2018-03-28T01:04:00.479Z,19.23
2018-03-28T01:06:29.069Z,19.43
2018-03-28T01:08:57.753Z,17.77
2018-03-28T01:11:26.320Z,17.90
2018-03-28T01:13:54.951Z,22.10
2018-03-28T01:16:23.595Z,18.10
2018-03-28T01:18:52.256Z,17.03
2018-03-28T01:21:20.892Z,17.40
2018-03-28T01:23:50.261Z,15.60
2018-03-28T01:26:18.880Z,15.33
2018-03-28T01:28:48.261Z,17.00
2018-03-28T01:31:16.912Z,14.03
2018-03-28T01:33:45.532Z,12.87
2018-03-28T01:36:14.143Z,13.80
2018-03-28T01:38:42.726Z,12.37
2018-03-28T01:41:11.382Z,14.50
2018-03-28T01:43:39.954Z,13.23
2018-03-28T01:46:08.624Z,12.47
2018-03-28T01:48:37.248Z,12.80
2018-03-28T01:51:05.833Z,16.23
2018-03-28T01:53:34.473Z,12.47
2018-03-28T01:56:03.909Z,12.17
2018-03-28T01:58:32.536Z,12.30
2018-03-28T02:01:01.136Z,12.23
2018-03-28T02:03:29.825Z,11.90
2018-03-28T02:05:58.412Z,15.00
2018-03-28T02:08:27.056Z,16.53
2018-03-28T02:10:55.711Z,17.33
2018-03-28T02:13:24.351Z,17.77
2018-03-28T02:15:52.984Z,18.13
2018-03-28T02:18:22.320Z,15.27
2018-03-28T02:20:50.751Z,17.63
2018-03-28T02:23:19.362Z,18.47
2018-03-28T02:25:48.016Z,16.00
2018-03-28T02:28:19.334Z,15.60
2018-03-28T02:30:47.975Z,15.97
2018-03-28T02:33:16.642Z,17.80
2018-03-28T02:35:45.257Z,21.40
2018-03-28T02:38:13.910Z,21.90
2018-03-28T02:40:42.517Z,18.73
2018-03-28T02:43:12.007Z,20.97
2018-03-28T02:45:40.619Z,22.63
2018-03-28T02:48:10.035Z,19.53
2018-03-28T02:50:38.681Z,17.73
2018-03-28T02:53:07.255Z,21.83
2018-03-28T02:55:35.894Z,25.80
2018-03-28T02:58:04.486Z,19.80
2018-03-28T03:00:33.168Z,17.77
2018-03-28T03:03:01.758Z,21.07
2018-03-28T03:05:30.386Z,20.77
2018-03-28T03:07:58.988Z,20.47
2018-03-28T03:10:27.583Z,16.97
2018-03-28T03:12:56.225Z,23.40
2018-03-28T03:15:24.821Z,19.10
2018-03-28T03:17:53.444Z,21.97
2018-03-28T03:20:22.054Z,19.80
2018-03-28T03:22:51.442Z,25.10
2018-03-28T03:25:20.047Z,20.00
2018-03-28T03:27:48.644Z,23.20
2018-03-28T03:30:17.505Z,24.23
2018-03-28T03:32:46.161Z,25.07
2018-03-28T03:35:14.782Z,25.07
2018-03-28T03:37:43.363Z,26.37
2018-03-28T03:40:12.038Z,27.43
2018-03-28T03:42:40.648Z,24.67
2018-03-28T03:45:10.016Z,26.53
2018-03-28T03:47:38.640Z,23.50
2018-03-28T03:50:08.008Z,22.80
2018-03-28T03:52:36.655Z,32.53
2018-03-28T03:55:05.248Z,32.63
2018-03-28T03:57:33.859Z,37.27
2018-03-28T04:00:02.496Z,29.87
2018-03-28T04:02:31.132Z,32.97
2018-03-28T04:04:59.757Z,32.70
2018-03-28T04:07:28.364Z,32.47
2018-03-28T04:09:57.061Z,47.30
2018-03-28T04:12:26.421Z,50.93
2018-03-28T04:14:55.045Z,46.90
2018-03-28T04:17:24.431Z,46.17
2018-03-28T04:19:53.040Z,42.87
2018-03-28T04:22:22.474Z,56.20
2018-03-28T04:24:51.072Z,46.53
2018-03-28T04:27:19.704Z,45.30
2018-03-28T04:29:48.353Z,51.83
2018-03-28T04:32:17.061Z,52.33
2018-03-28T04:34:45.660Z,47.60
2018-03-28T04:37:14.315Z,48.93
2018-03-28T04:39:42.956Z,47.43
2018-03-28T04:42:12.298Z,53.27
2018-03-28T04:44:40.920Z,51.20
2018-03-28T04:47:09.539Z,55.27
2018-03-28T04:49:38.184Z,52.63
2018-03-28T04:52:06.807Z,53.47
2018-03-28T04:54:36.179Z,55.63
2018-03-28T04:57:04.812Z,47.70
2018-03-28T04:59:33.480Z,50.63
2018-03-28T05:02:02.924Z,50.30
2018-03-28T05:04:31.563Z,51.23
2018-03-28T05:07:00.184Z,51.47
2018-03-28T05:09:28.797Z,48.60
2018-03-28T05:11:58.202Z,55.10
2018-03-28T05:14:26.810Z,47.80
2018-03-28T05:16:55.456Z,48.87
2018-03-28T05:19:24.118Z,44.13
2018-03-28T05:21:52.799Z,45.40
2018-03-28T05:24:22.208Z,44.23
2018-03-28T05:26:50.793Z,54.70
2018-03-28T05:29:19.216Z,49.97
2018-03-28T05:31:47.834Z,60.13
2018-03-28T05:34:16.257Z,50.20
2018-03-28T05:36:45.425Z,60.20
2018-03-28T05:39:14.063Z,50.33
2018-03-28T05:41:42.652Z,52.40
2018-03-28T05:44:11.287Z,55.93
2018-03-28T05:46:39.900Z,58.57
2018-03-28T05:49:09.257Z,58.30
2018-03-28T05:51:37.888Z,66.33
2018-03-28T05:54:06.468Z,68.50
2018-03-28T05:56:35.862Z,72.13
2018-03-28T05:59:04.439Z,60.27
2018-03-28T06:01:33.077Z,54.43
2018-03-28T06:04:01.720Z,82.60
2018-03-28T06:06:30.317Z,70.30
2018-03-28T06:08:58.948Z,72.10
2018-03-28T06:11:30.872Z,74.57
2018-03-28T06:14:01.616Z,71.07
2018-03-28T06:16:30.989Z,52.63
2018-03-28T06:18:59.591Z,66.70
2018-03-28T06:21:28.242Z,61.20
2018-03-28T06:23:56.908Z,57.80
2018-03-28T06:26:25.565Z,45.33
2018-03-28T06:28:54.969Z,45.20
2018-03-28T06:31:24.423Z,39.33
2018-03-28T06:33:53.049Z,41.93
2018-03-28T06:36:21.718Z,41.80
2018-03-28T06:38:50.300Z,35.27
2018-03-28T06:41:18.969Z,44.57
2018-03-28T06:43:47.627Z,37.57
2018-03-28T06:46:17.034Z,40.60
2018-03-28T06:48:45.681Z,35.10
2018-03-28T06:51:14.265Z,29.67
2018-03-28T06:53:43.103Z,31.10
2018-03-28T06:56:11.699Z,26.57
2018-03-28T06:58:40.352Z,34.17
2018-03-28T07:01:08.728Z,26.47
2018-03-28T07:03:37.318Z,31.60
2018-03-28T07:06:05.972Z,27.40
2018-03-28T07:08:34.611Z,26.10
2018-03-28T07:11:03.995Z,27.67
2018-03-28T07:13:33.992Z,30.23
2018-03-28T07:16:02.394Z,28.50
2018-03-28T07:18:30.998Z,27.70
2018-03-28T07:21:00.422Z,30.10
2018-03-28T07:23:29.039Z,28.43
2018-03-28T07:25:57.674Z,26.87
2018-03-28T07:28:27.254Z,23.23
2018-03-28T07:30:55.863Z,22.10
2018-03-28T07:33:24.468Z,24.23
2018-03-28T07:35:53.804Z,22.57
2018-03-28T07:38:22.436Z,22.57
2018-03-28T07:40:51.026Z,18.40
2018-03-28T07:43:19.660Z,19.53
2018-03-28T07:45:48.304Z,17.23
2018-03-28T07:48:16.902Z,16.00
2018-03-28T07:50:46.300Z,17.67
2018-03-28T07:53:15.712Z,14.97
2018-03-28T07:55:45.108Z,16.47
2018-03-28T07:58:13.712Z,12.03
2018-03-28T08:00:42.321Z,13.80
2018-03-28T08:03:10.932Z,13.00
2018-03-28T08:05:39.585Z,14.07
2018-03-28T08:08:08.230Z,13.30
2018-03-28T08:10:36.839Z,10.47
2018-03-28T08:13:05.479Z,9.30
2018-03-28T08:15:34.084Z,11.03
2018-03-28T08:18:02.708Z,9.33
2018-03-28T08:20:31.357Z,9.93
2018-03-28T08:22:59.960Z,11.90
2018-03-28T08:25:28.560Z,11.33
2018-03-28T08:27:57.984Z,10.40
2018-03-28T08:30:26.654Z,8.93
2018-03-28T08:32:56.006Z,10.60
2018-03-28T08:35:24.634Z,12.27
2018-03-28T08:37:53.225Z,9.80
2018-03-28T08:40:23.641Z,9.30
2018-03-28T08:42:52.310Z,11.87
2018-03-28T08:45:20.926Z,10.13
2018-03-28T08:47:50.441Z,8.50
2018-03-28T08:50:20.091Z,10.67
2018-03-28T08:52:48.794Z,10.37
2018-03-28T08:55:17.393Z,9.83
2018-03-28T08:57:45.977Z,10.10
2018-03-28T09:00:14.652Z,11.20
2018-03-28T09:02:43.569Z,10.90
2018-03-28T09:05:12.211Z,13.37
2018-03-28T09:07:40.807Z,10.63
2018-03-28T09:10:09.510Z,10.80
2018-03-28T09:12:38.121Z,11.70
2018-03-28T09:15:06.792Z,11.77
2018-03-28T09:17:35.392Z,11.30
2018-03-28T09:20:03.739Z,11.23
2018-03-28T09:22:32.582Z,11.73
2018-03-28T09:25:01.173Z,13.67
2018-03-28T09:27:29.888Z,12.23
2018-03-28T09:29:58.502Z,14.63
2018-03-28T09:32:27.144Z,14.17
2018-03-28T09:34:55.769Z,13.60
2018-03-28T09:37:24.422Z,13.17
2018-03-28T09:39:53.084Z,18.87
2018-03-28T09:42:21.726Z,16.17
2018-03-28T09:44:50.372Z,17.87
2018-03-28T09:47:18.975Z,16.77
2018-03-28T09:49:49.081Z,16.23
2018-03-28T09:52:18.574Z,18.03
2018-03-28T09:54:47.729Z,17.93
2018-03-28T09:57:16.370Z,19.77
2018-03-28T09:59:45.030Z,20.30
2018-03-28T10:02:13.545Z,21.90
2018-03-28T10:04:50.691Z,18.57
2018-03-28T10:07:19.392Z,19.13
2018-03-28T10:09:48.559Z,20.73
2018-03-28T10:12:17.178Z,22.97
2018-03-28T10:14:45.766Z,24.17
2018-03-28T10:17:14.422Z,17.23
2018-03-28T10:19:43.061Z,25.10
2018-03-28T10:22:11.692Z,20.40
2018-03-28T10:24:40.324Z,21.07
2018-03-28T10:27:08.968Z,17.07
2018-03-28T10:29:37.610Z,18.70
2018-03-28T10:32:06.204Z,19.03
2018-03-28T10:34:34.926Z,15.63
2018-03-28T10:37:03.740Z,16.77
2018-03-28T10:39:32.409Z,20.43
2018-03-28T10:42:01.024Z,16.50
2018-03-28T10:44:29.665Z,17.27
2018-03-28T10:46:59.065Z,15.67
2018-03-28T10:49:28.487Z,18.50
2018-03-28T10:51:57.103Z,18.67
2018-03-28T10:54:25.711Z,19.57
2018-03-28T10:56:54.338Z,18.40
2018-03-28T10:59:23.718Z,17.43
2018-03-28T11:01:52.349Z,15.70
2018-03-28T11:04:21.049Z,13.70
2018-03-28T11:06:49.495Z,15.97
2018-03-28T11:09:18.883Z,17.00
2018-03-28T11:11:47.549Z,14.23
2018-03-28T11:14:16.214Z,18.47
2018-03-28T11:16:44.837Z,16.87
2018-03-28T11:19:13.441Z,16.87
2018-03-28T11:21:42.037Z,17.37
2018-03-28T11:24:10.716Z,16.00
2018-03-28T11:26:39.304Z,13.77
2018-03-28T11:29:08.696Z,16.20
2018-03-28T11:31:39.662Z,18.33
2018-03-28T11:34:09.232Z,17.57
2018-03-28T11:36:37.858Z,14.70
2018-03-28T11:39:06.648Z,13.10
2018-03-28T11:41:36.093Z,15.27
2018-03-28T11:44:04.779Z,14.13
2018-03-28T11:46:33.498Z,16.87
2018-03-28T11:49:02.146Z,16.57
2018-03-28T11:51:36.579Z,14.47
2018-03-28T11:54:05.219Z,13.77
2018-03-28T11:56:33.883Z,15.90
2018-03-28T11:59:02.516Z,13.03
2018-03-28T12:01:31.908Z,18.33
2018-03-28T12:04:01.278Z,16.37
2018-03-28T12:06:30.079Z,14.47
2018-03-28T12:08:58.748Z,16.13
2018-03-28T12:11:27.341Z,13.90
2018-03-28T12:13:58.097Z,16.90
2018-03-28T12:16:29.951Z,14.17
2018-03-28T12:18:58.560Z,14.57
2018-03-28T12:21:28.390Z,14.80
2018-03-28T12:23:58.914Z,13.43
2018-03-28T12:26:27.692Z,15.70
2018-03-28T12:28:56.279Z,14.23
2018-03-28T12:31:25.666Z,13.20
2018-03-28T12:33:54.293Z,16.47
2018-03-28T12:36:22.932Z,11.73
2018-03-28T12:38:51.526Z,14.00
2018-03-28T12:41:20.178Z,14.97
2018-03-28T12:43:48.835Z,16.27
2018-03-28T12:46:18.262Z,16.30
2018-03-28T12:48:46.936Z,14.87
2018-03-28T12:51:15.628Z,18.93
2018-03-28T12:53:46.413Z,20.23
2018-03-28T12:56:15.027Z,17.10
2018-03-28T12:58:43.704Z,17.83
2018-03-28T13:01:12.302Z,16.00
2018-03-28T13:03:40.922Z,16.27
2018-03-28T13:06:09.499Z,18.50
2018-03-28T13:08:38.168Z,19.57
2018-03-28T13:11:06.882Z,18.10
2018-03-28T13:13:35.652Z,17.57
2018-03-28T13:16:05.071Z,15.93
2018-03-28T13:18:33.734Z,18.27
2018-03-28T13:21:02.411Z,12.33
2018-03-28T13:23:31.906Z,17.97
2018-03-28T13:26:01.354Z,15.17
2018-03-28T13:28:30.753Z,16.87
2018-03-28T13:31:00.198Z,13.37
2018-03-28T13:33:30.564Z,12.50
2018-03-28T13:36:05.571Z,12.97
2018-03-28T13:38:34.343Z,13.27
2018-03-28T13:41:03.037Z,13.07
2018-03-28T13:43:31.660Z,11.70
2018-03-28T13:46:02.479Z,18.17
2018-03-28T13:48:31.134Z,13.03
2018-03-28T13:50:59.780Z,16.43
2018-03-28T13:53:28.366Z,11.17
2018-03-28T13:55:56.974Z,12.27
2018-03-28T13:58:26.372Z,13.30
2018-03-28T14:00:55.068Z,9.57
2018-03-28T14:03:24.450Z,11.57
2018-03-28T14:05:53.151Z,12.80
2018-03-28T14:08:21.749Z,13.13
2018-03-28T14:10:51.170Z,10.07
2018-03-28T14:13:19.773Z,10.40
2018-03-28T14:15:48.436Z,11.83
2018-03-28T14:18:17.802Z,14.47
2018-03-28T14:20:46.470Z,15.97
2018-03-28T14:23:15.339Z,9.53
2018-03-28T14:25:44.001Z,9.03
2018-03-28T14:28:13.398Z,13.10
2018-03-28T14:30:42.807Z,11.03
2018-03-28T14:33:11.603Z,12.67
2018-03-28T14:35:40.956Z,16.63
2018-03-28T14:38:09.662Z,11.90
2018-03-28T14:40:38.257Z,12.23
2018-03-28T14:43:06.867Z,17.43
2018-03-28T14:45:36.269Z,11.07
2018-03-28T14:48:04.622Z,9.73
2018-03-28T14:50:33.244Z,12.37
2018-03-28T14:53:02.659Z,13.57
2018-03-28T14:55:31.601Z,12.77
2018-03-28T14:58:00.204Z,10.67
2018-03-28T15:00:28.853Z,11.97
2018-03-28T15:02:57.736Z,9.43
2018-03-28T15:05:26.397Z,15.27
2018-03-28T15:07:55.798Z,14.33
2018-03-28T15:10:25.184Z,12.57
2018-03-28T15:12:53.887Z,10.23
2018-03-28T15:15:23.316Z,9.87
2018-03-28T15:17:51.981Z,10.17
2018-03-28T15:20:20.572Z,12.30
2018-03-28T15:23:08.784Z,10.00
2018-03-28T15:25:37.388Z,11.53
2018-03-28T15:28:06.081Z,13.20
2018-03-28T15:30:42.493Z,11.10
2018-03-28T15:33:11.115Z,9.83
2018-03-28T15:35:39.721Z,14.43
2018-03-28T15:38:08.403Z,14.10
2018-03-28T15:40:37.024Z,15.03
2018-03-28T15:43:05.698Z,12.60
2018-03-28T15:45:34.372Z,11.33
2018-03-28T15:48:02.952Z,9.80
2018-03-28T15:50:31.581Z,12.60
2018-03-28T15:53:00.364Z,11.77
2018-03-28T15:55:29.795Z,8.90
2018-03-28T15:57:58.436Z,10.97
2018-03-28T16:00:27.150Z,12.93
2018-03-28T16:02:55.493Z,29.97
2018-03-28T16:05:24.197Z,25.60
2018-03-28T16:07:52.775Z,17.93
2018-03-28T16:10:21.369Z,13.20
2018-03-28T16:12:53.622Z,16.03
2018-03-28T16:15:24.556Z,14.53
2018-03-28T16:17:53.240Z,27.13
2018-03-28T16:20:21.871Z,24.03
2018-03-28T16:22:51.315Z,29.00
2018-03-28T16:25:19.938Z,18.93
2018-03-28T16:27:48.639Z,16.77
2018-03-28T16:30:17.304Z,31.63
2018-03-28T16:32:45.944Z,17.67
2018-03-28T16:35:15.336Z,24.13
2018-03-28T16:37:44.706Z,23.87
2018-03-28T16:40:13.421Z,22.53
2018-03-28T16:42:42.803Z,9.37
2018-03-28T16:45:11.453Z,16.60
2018-03-28T16:47:40.065Z,12.27
2018-03-28T16:50:09.085Z,17.00
2018-03-28T16:52:37.708Z,14.20
2018-03-28T16:55:06.378Z,13.83
2018-03-28T16:57:35.739Z,14.93
2018-03-28T17:00:03.770Z,11.67
2018-03-28T17:02:33.468Z,10.17
2018-03-28T17:05:04.012Z,9.17
2018-03-28T17:07:32.661Z,8.57
2018-03-28T17:10:01.308Z,6.57
2018-03-28T17:12:29.968Z,9.73
2018-03-28T17:14:58.732Z,8.70
2018-03-28T17:17:27.379Z,8.83
2018-03-28T17:19:55.966Z,10.83
2018-03-28T17:22:24.620Z,9.50
2018-03-28T17:24:57.948Z,8.10
2018-03-28T17:27:26.601Z,8.30
2018-03-28T17:29:56.061Z,7.87
2018-03-28T17:32:24.703Z,4.90
2018-03-28T17:34:54.297Z,7.87
2018-03-28T17:37:23.695Z,7.57
2018-03-28T17:39:53.139Z,10.73
2018-03-28T17:42:21.732Z,14.87
2018-03-28T17:44:50.361Z,17.20
2018-03-28T17:47:19.066Z,16.77
2018-03-28T17:49:47.728Z,10.57
2018-03-28T17:52:16.335Z,11.20
2018-03-28T17:54:44.944Z,11.33
2018-03-28T17:57:14.541Z,13.33
2018-03-28T17:59:43.240Z,15.23
2018-03-28T18:02:13.197Z,14.43
2018-03-28T18:04:43.851Z,14.67
2018-03-28T18:07:14.630Z,13.23
2018-03-28T18:09:56.577Z,14.63
2018-03-28T18:12:25.507Z,15.40
2018-03-28T18:14:58.187Z,13.23
2018-03-28T18:17:44.554Z,11.57
2018-03-28T18:20:14.469Z,12.20
2018-03-28T18:22:43.146Z,12.53
2018-03-28T18:25:11.765Z,11.27
2018-03-28T18:27:41.149Z,11.53
2018-03-28T18:30:10.497Z,9.47
2018-03-28T18:32:39.163Z,9.93
2018-03-28T18:35:11.406Z,9.60
2018-03-28T18:37:40.205Z,12.93
2018-03-28T18:40:09.983Z,10.77
2018-03-28T18:42:47.020Z,6.80
2018-03-28T18:45:15.725Z,7.40
2018-03-28T18:47:45.424Z,6.93
2018-03-28T18:50:32.895Z,8.40
2018-03-28T18:53:01.674Z,5.53
2018-03-28T18:55:31.070Z,6.03
2018-03-28T18:57:59.674Z,7.10
2018-03-28T19:00:29.165Z,5.53
2018-03-28T19:02:57.929Z,6.30
2018-03-28T19:05:26.711Z,8.70
2018-03-28T19:07:55.351Z,5.50
2018-03-28T19:10:33.169Z,6.30
2018-03-28T19:13:02.884Z,6.80
2018-03-28T19:15:31.533Z,5.97
2018-03-28T19:18:00.159Z,6.67
2018-03-28T19:20:29.248Z,6.30
2018-03-28T19:22:59.247Z,9.73
2018-03-28T19:25:27.908Z,10.10
2018-03-28T19:27:57.598Z,8.47
2018-03-28T19:30:26.220Z,17.53
2018-03-28T19:32:54.821Z,19.47
2018-03-28T19:35:24.196Z,21.50
2018-03-28T19:37:53.033Z,19.60
2018-03-28T19:40:42.819Z,20.00
2018-03-28T19:43:12.417Z,17.97
2018-03-28T19:45:41.818Z,19.13
2018-03-28T19:48:10.506Z,17.23
2018-03-28T19:50:39.088Z,16.20
2018-03-28T19:53:08.530Z,15.47
2018-03-28T19:55:37.673Z,12.07
2018-03-28T19:58:08.152Z,12.37
2018-03-28T20:00:36.780Z,9.53
2018-03-28T20:03:05.413Z,9.00
2018-03-28T20:05:34.548Z,10.97
2018-03-28T20:08:03.236Z,10.43
2018-03-28T20:10:31.894Z,9.00
2018-03-28T20:13:01.458Z,8.60
2018-03-28T20:15:30.064Z,8.43
2018-03-28T20:17:58.647Z,7.87
2018-03-28T20:20:27.435Z,7.77
2018-03-28T20:22:56.850Z,7.83
2018-03-28T20:25:26.288Z,8.27
2018-03-28T20:28:04.358Z,8.40
2018-03-28T20:30:33.064Z,9.87
2018-03-28T20:33:02.463Z,10.13
2018-03-28T20:35:31.046Z,10.50
2018-03-28T20:37:59.708Z,11.53
2018-03-28T20:40:28.188Z,10.23
2018-03-28T20:42:56.782Z,9.77
2018-03-28T20:45:26.203Z,11.27
2018-03-28T20:47:54.815Z,8.47
2018-03-28T20:50:24.216Z,10.93
2018-03-28T20:52:52.839Z,10.40
2018-03-28T20:55:21.451Z,11.37
2018-03-28T20:57:50.090Z,8.67
2018-03-28T21:00:19.222Z,9.60
2018-03-28T21:02:48.644Z,9.47
2018-03-28T21:05:17.280Z,8.13
2018-03-28T21:07:46.706Z,8.17
2018-03-28T21:10:15.318Z,7.63
2018-03-28T21:12:43.929Z,8.03
2018-03-28T21:15:12.577Z,8.67
2018-03-28T21:17:41.215Z,13.60
2018-03-28T21:20:10.896Z,14.53
2018-03-28T21:22:39.505Z,7.67
2018-03-28T21:25:08.144Z,6.10
2018-03-28T21:27:36.740Z,7.17
2018-03-28T21:30:05.401Z,5.33
2018-03-28T21:32:34.001Z,6.60
2018-03-28T21:35:02.622Z,7.07
2018-03-28T21:37:31.237Z,7.73
2018-03-28T21:40:00.710Z,7.30
2018-03-28T21:42:29.305Z,8.17
2018-03-28T21:44:57.892Z,11.07
2018-03-28T21:47:26.511Z,9.03
2018-03-28T21:49:56.159Z,10.17
2018-03-28T21:52:24.767Z,6.77
2018-03-28T21:54:54.168Z,9.33
2018-03-28T21:57:22.814Z,7.20
2018-03-28T21:59:51.480Z,7.57
2018-03-28T22:02:20.121Z,7.00
2018-03-28T22:04:48.740Z,9.20
2018-03-28T22:07:17.320Z,9.97
2018-03-28T22:09:45.928Z,9.97
2018-03-28T22:12:14.565Z,11.33
2018-03-28T22:14:43.209Z,12.93
2018-03-28T22:17:12.650Z,12.67
2018-03-28T22:19:41.273Z,11.37
2018-03-28T22:22:09.953Z,11.60
2018-03-28T22:24:48.252Z,11.30
2018-03-28T22:27:16.912Z,11.80
2018-03-28T22:29:45.514Z,12.80
2018-03-28T22:32:14.176Z,12.53
2018-03-28T22:34:43.567Z,12.20
2018-03-28T22:37:12.925Z,13.30
2018-03-28T22:39:41.535Z,13.07
2018-03-28T22:42:10.601Z,12.23
2018-03-28T22:44:39.377Z,11.57
2018-03-28T22:47:07.974Z,11.97
2018-03-28T22:49:36.603Z,10.97
2018-03-28T22:52:05.308Z,10.13
2018-03-28T22:54:33.879Z,10.00
2018-03-28T22:57:02.543Z,10.07
2018-03-28T22:59:31.156Z,9.80
2018-03-28T23:01:59.777Z,9.87
2018-03-28T23:04:29.130Z,9.73
2018-03-28T23:06:57.742Z,9.60
2018-03-28T23:09:26.382Z,8.17
2018-03-28T23:11:55.031Z,7.57
2018-03-28T23:14:24.404Z,6.43
2018-03-28T23:16:53.033Z,6.20
2018-03-28T23:19:21.674Z,5.83
2018-03-28T23:21:50.276Z,5.27
2018-03-28T23:24:18.895Z,5.30
2018-03-28T23:26:47.563Z,5.73
2018-03-28T23:29:16.236Z,5.93
2018-03-28T23:31:45.645Z,7.20
2018-03-28T23:34:14.284Z,8.87
2018-03-28T23:36:42.970Z,7.00
2018-03-28T23:39:11.588Z,7.77
2018-03-28T23:41:40.186Z,7.33
2018-03-28T23:44:08.797Z,7.33
2018-03-28T23:46:37.410Z,7.50
2018-03-28T23:49:06.244Z,8.00
2018-03-28T23:51:34.894Z,8.97
2018-03-28T23:54:03.523Z,7.87
2018-03-28T23:56:32.165Z,9.10
2018-03-28T23:59:00.777Z,8.70
